Latest Coastal Weather Observations for Mornington Island Airport

IDQ60701

Issued at 10:31 am EST Sunday 20 October 2019 (issued every 10 minutes, with the page automatically refreshed every 10 minutes)

About coastal observations | Map of coastal stations | Coastal observations for QLD | Marine services | Other Formats
Station Details ID: 029182 Name: MORNINGTON ISLAND AIRPORT Lat: -16.66 Lon: 139.17 Height: 9.52 m
Data from the previous 72 hours. | See also: Recent months at Mornington Island Airport
Date/Time
EST
Wind Sea
Height
m
Swell Vis
km
Cloud Weather Temp
°C
Press
hPa
Rain since
9am
mm
Dir  Spd
kts
Gust
kts
Height
m
Period
s
Dir
20/10:30am SE 14 21 - - - - 10 Clear - 31.9 1015.9 0.0
20/10:00am SE 15 20 - - - - 10 - - 31.8 1016.0 0.0
20/09:30am SE 17 25 - - - - 10 - - 31.9 1016.0 0.0
20/09:00am SE 16 24 - - - - 10 - - 31.6 1015.9 -
20/08:30am SE 16 25 - - - - 10 - - 31.5 1015.6 -
20/08:08am SE 17 27 - - - - 10 - - 31.2 1015.4 -
20/08:00am SE 17 26 - - - - 10 - - 31.1 1015.4 -
20/07:30am SE 16 24 - - - - 10 - - 30.7 1014.9 -
20/07:00am SE 11 16 - - - - 10 - - 30.0 1014.6 -
20/06:30am SE 12 19 - - - - 10 - - 29.8 1014.1 -
20/06:00am SE 12 16 - - - - 10 - - 29.7 1013.7 -
20/05:30am SE 12 18 - - - - 10 - - 29.7 1013.1 -
20/05:00am SE 10 14 - - - - 10 - - 29.5 1012.7 -
20/04:30am SSE 10 15 - - - - 10 - - 29.9 1012.4 -
20/04:00am SE 12 19 - - - - 10 - - 30.5 1012.1 -
20/03:30am SE 11 13 - - - - 10 - - 30.3 1012.0 -
20/03:00am SE 9 14 - - - - 10 - - 29.5 1012.0 0.0
20/02:30am SE 7 10 - - - - - - - 26.6 1012.3 -
20/02:00am SSW 4 6 - - - - - - - 24.0 1012.5 -
20/01:30am WSW 5 6 - - - - - - - 24.7 1012.8 -
20/01:00am NW 4 5 - - - - - - - 26.0 1012.9 -
20/12:30am NW 3 4 - - - - - - - 26.1 1013.1 -
20/12:00am NW 3 5 - - - - 10 - - 26.4 1013.4 -
 
Date/Time
EST
Wind Sea
Height
m
Swell Vis
km
Cloud Weather Temp
°C
Press
hPa
Rain since
9am
mm
Dir  Spd
kts
Gust
kts
Height
m
Period
s
Dir
19/11:30pm NW 3 5 - - - - 10 - - 26.5 1013.5 -
19/11:00pm NW 5 5 - - - - 10 - - 26.5 1013.6 -
19/10:30pm NNW 3 4 - - - - 10 - - 25.0 1013.5 -
19/10:00pm NNW 3 4 - - - - 10 - - 25.5 1013.4 -
19/09:30pm NNW 3 4 - - - - 10 - - 25.6 1013.2 -
19/09:00pm NNW 3 4 - - - - 10 - - 26.5 1013.1 0.0
19/08:30pm NNW 5 6 - - - - 10 - - 26.7 1012.8 -
19/08:00pm CALM 0 0 - - - - 10 - - 26.9 1012.7 -
19/07:30pm NNW 3 5 - - - - 10 - - 27.3 1012.4 -
19/07:00pm NNW 4 6 - - - - 10 - - 28.1 1012.1 -
19/06:30pm NNW 6 7 - - - - 10 - - 29.4 1011.9 -
19/06:00pm NW 8 10 - - - - 10 - - 30.7 1011.7 -
19/05:47pm NW 8 10 - - - - 10 - - 31.6 1011.6 -
19/05:30pm SE 5 8 - - - - 10 - - 36.6 1011.7 -
19/05:00pm ESE 9 12 - - - - 10 - - 36.8 1011.7 -
19/04:30pm ESE 9 14 - - - - 10 - - 37.7 1011.8 -
19/04:00pm ESE 11 17 - - - - 10 - - 37.4 1012.0 -
19/03:30pm ESE 13 19 - - - - 10 - - 37.2 1012.2 -
19/03:00pm SE 12 18 - - - - 10 - - 37.1 1012.6 -
19/02:30pm SE 13 19 - - - - 10 - - 36.7 1012.9 0.0
19/02:00pm SE 15 19 - - - - 10 - - 35.7 1013.4 0.0
19/01:30pm SE 15 22 - - - - 10 - - 35.3 1013.8 0.0
19/01:00pm SE 12 19 - - - - 10 - - 34.5 1014.2 0.0
19/12:30pm SE 14 20 - - - - 10 - - 34.6 1014.6 0.0
19/12:00pm SE 15 21 - - - - 10 - - 35.0 1014.7 0.0
19/11:30am SSE 11 17 - - - - 10 - - 32.9 1015.2 0.0
19/11:00am SSE 9 15 - - - - 10 - - 32.7 1015.7 0.0
19/10:30am SSE 11 16 - - - - 10 - - 32.3 1015.9 0.0
19/10:00am SSE 10 15 - - - - 10 - - 31.1 1016.2 0.0
19/09:30am WSW 6 8 - - - - 10 - - 30.2 1016.2 0.0
19/09:00am WSW 7 10 - - - - - - - 29.0 1016.1 0.0
19/08:30am SW 8 11 - - - - - - - 28.6 1016.0 0.0
19/08:00am WSW 8 11 - - - - - Partly cloudy - 28.2 1015.8 0.0
19/07:30am WSW 7 9 - - - - - Partly cloudy - 27.6 1015.4 0.0
19/07:23am W 7 11 - - - - - Partly cloudy - 27.4 1015.4 0.0
19/07:00am W 5 8 - - - - - Partly cloudy - 27.0 1015.3 0.0
19/06:30am W 6 7 - - - - - Cloudy - 26.6 1015.2 0.0
19/06:06am W 6 8 - - - - - Partly cloudy - 26.5 1015.1 0.0
19/06:00am W 6 8 - - - - - Cloudy - 26.4 1014.8 0.0
19/05:30am W 8 9 - - - - - - - 26.3 1014.3 0.0
19/05:00am WNW 7 9 - - - - - - - 26.5 1014.2 0.0
19/04:30am W 9 11 - - - - 10 Partly cloudy - 26.9 1013.7 0.0
19/04:01am W 11 14 - - - - 10 Partly cloudy - 26.9 1013.4 0.0
19/04:00am W 11 14 - - - - 10 Partly cloudy - 26.9 1013.4 0.0
19/03:30am W 12 15 - - - - 10 Partly cloudy - 26.8 1013.3 0.0
19/03:27am W 11 15 - - - - 10 Partly cloudy - 26.9 1013.3 0.0
19/03:00am W 11 14 - - - - 10 - - 26.8 1013.1 0.0
19/02:30am WNW 10 14 - - - - 10 - - 26.9 1013.2 0.0
19/02:00am WNW 12 17 - - - - 10 - - 26.9 1013.2 0.0
19/01:30am WNW 12 16 - - - - 10 - - 26.9 1013.0 0.0
19/01:00am WNW 12 14 - - - - 10 - - 26.9 1013.1 0.0
19/12:30am NW 13 16 - - - - 10 - - 26.9 1013.2 0.0
19/12:00am NW 12 15 - - - - 10 - - 27.1 1013.3 0.0
 
Date/Time
EST
Wind Sea
Height
m
Swell Vis
km
Cloud Weather Temp
°C
Press
hPa
Rain since
9am
mm
Dir  Spd
kts
Gust
kts
Height
m
Period
s
Dir
18/11:30pm NW 13 15 - - - - 10 - - 27.0 1013.2 0.0
18/11:00pm NNW 13 17 - - - - 10 - - 27.0 1013.2 0.0
18/10:30pm NNW 13 16 - - - - 10 - - 27.1 1013.0 0.0
18/10:00pm NNW 11 15 - - - - 10 - - 27.1 1012.8 0.0
18/09:30pm N 10 15 - - - - 10 - - 27.2 1012.7 0.0
18/09:00pm N 10 14 - - - - 10 - - 27.3 1012.5 0.0
18/08:30pm N 10 14 - - - - 10 - - 27.4 1012.0 0.0
18/08:00pm N 9 11 - - - - 10 - - 27.8 1011.6 0.0
18/07:30pm N 7 11 - - - - 10 - - 27.8 1011.4 0.0
18/07:00pm N 9 11 - - - - 10 - - 28.1 1011.0 0.0
18/06:30pm N 9 13 - - - - 10 - - 28.5 1010.9 0.0
18/06:00pm N 9 13 - - - - 10 - - 29.7 1010.8 0.0
18/05:30pm N 9 11 - - - - 10 - - 30.6 1010.5 0.0
18/05:00pm N 9 12 - - - - 10 - - 31.0 1010.4 0.0
18/04:30pm N 11 15 - - - - 10 - - 31.9 1010.2 0.0
18/04:00pm N 9 12 - - - - 10 - - 32.7 1010.1 0.0
18/03:30pm N 10 15 - - - - 10 - - 32.6 1010.2 0.0
18/03:00pm N 10 15 - - - - 10 - - 32.7 1010.5 0.0
18/02:30pm NNW 11 15 - - - - 10 - - 33.5 1011.1 0.0
18/02:00pm WNW 7 9 - - - - 10 - - 32.8 1011.6 0.0
18/01:30pm WNW 6 8 - - - - 10 - - 32.0 1012.2 0.0
18/01:00pm WNW 8 9 - - - - 10 - - 30.9 1012.8 0.0
18/12:30pm W 9 11 - - - - 10 - - 31.0 1013.4 0.0
18/12:00pm W 7 10 - - - - 10 - - 30.9 1013.8 0.0
18/11:30am W 7 9 - - - - 10 - - 30.3 1014.3 0.0
18/11:00am W 7 9 - - - - 10 - - 29.7 1014.9 0.0
18/10:30am WNW 8 9 - - - - 10 - - 29.1 1015.3 0.0
18/10:00am NW 9 11 - - - - 10 - - 28.8 1015.3 0.0
18/09:30am NNW 6 10 - - - - 10 - - 29.3 1015.4 0.0
18/09:00am ESE 4 8 - - - - 10 - - 29.7 1015.7 0.0
18/08:30am ESE 6 9 - - - - 10 Partly cloudy - 28.4 1015.5 0.0
18/08:02am E 8 11 - - - - 10 Partly cloudy - 27.3 1015.7 0.0
18/08:00am ENE 8 10 - - - - 10 Partly cloudy - 27.3 1015.7 0.0
18/07:30am ENE 9 13 - - - - 10 Partly cloudy - 26.1 1015.6 0.0
18/07:12am E 10 17 - - - - 10 Partly cloudy - 25.6 1015.3 0.0
18/07:00am S 5 13 - - - - 10 - - 25.5 1014.7 0.0
18/06:30am SW 5 8 - - - - 10 - - 25.3 1013.3 0.0
18/06:00am SW 8 11 - - - - 10 Mostly clear - 25.4 1012.9 0.0
18/05:50am SW 8 13 - - - - 10 Partly cloudy - 25.5 1012.9 0.0
18/05:30am WSW 9 12 - - - - 10 Partly cloudy - 25.6 1012.7 0.0
18/05:00am WSW 9 14 - - - - 10 Partly cloudy - 25.6 1012.3 0.0
18/04:30am WSW 9 14 - - - - 10 Partly cloudy - 25.7 1012.1 0.0
18/04:05am SW 9 12 - - - - 10 Partly cloudy - 26.1 1012.1 0.0
18/04:00am WSW 9 13 - - - - 10 Partly cloudy - 26.4 1012.1 0.0
18/03:56am WSW 9 13 - - - - 10 Partly cloudy - 26.3 1012.0 0.0
18/03:30am WSW 10 13 - - - - 10 Partly cloudy - 26.2 1012.1 0.0
18/03:20am WSW 10 13 - - - - 10 Partly cloudy - 26.2 1012.1 0.0
18/03:00am W 10 13 - - - - 10 Mostly clear - 26.2 1012.0 0.0
18/02:30am WNW 11 13 - - - - 10 - - 26.0 1011.7 0.0
18/02:00am NW 11 13 - - - - 10 - - 26.0 1011.9 0.0
18/01:30am NW 11 13 - - - - 10 - - 26.2 1012.3 0.0
18/01:00am NW 11 14 - - - - 10 - - 26.2 1012.5 0.0
18/12:30am NNW 11 13 - - - - 10 - - 26.2 1012.7 0.0
18/12:00am NNW 9 12 - - - - 10 - - 26.1 1013.0 0.0
 
Date/Time
EST
Wind Sea
Height
m
Swell Vis
km
Cloud Weather Temp
°C
Press
hPa
Rain since
9am
mm
Dir  Spd
kts
Gust
kts
Height
m
Period
s
Dir
17/11:30pm N 10 14 - - - - 10 - - 26.1 1012.9 0.0
17/11:00pm N 8 10 - - - - 10 - - 26.0 1013.1 0.0
17/10:30pm N 7 9 - - - - 10 - - 25.9 1013.4 0.0
17/10:00pm N 7 9 - - - - 10 - - 26.1 1013.6 0.0
17/09:30pm N 7 10 - - - - 10 - - 26.2 1013.4 0.0
17/09:00pm N 7 9 - - - - 10 - - 26.3 1013.5 0.0
17/08:30pm N 6 8 - - - - 10 - - 26.4 1013.4 0.0
17/08:00pm N 8 10 - - - - 10 - - 26.6 1013.3 0.0
17/07:30pm N 8 11 - - - - 10 - - 26.7 1013.1 0.0
17/07:00pm N 9 12 - - - - 10 - - 26.9 1013.0 0.0
17/06:30pm N 10 13 - - - - 10 - - 27.2 1012.7 0.0
17/06:00pm N 9 14 - - - - 10 - - 27.9 1012.5 0.0
17/05:30pm N 11 13 - - - - 10 - - 28.1 1012.2 0.0
17/05:00pm N 12 16 - - - - 10 - - 29.1 1012.1 0.0
17/04:30pm N 12 16 - - - - 10 - - 29.3 1012.0 0.0
17/04:00pm NNW 13 19 - - - - 10 - - 29.8 1012.0 0.0
17/03:30pm N 11 16 - - - - 10 - - 30.2 1012.3 0.0
17/03:00pm N 12 18 - - - - 10 - - 30.9 1012.5 0.0
17/02:30pm NNW 14 18 - - - - 10 - - 30.0 1012.6 0.0
17/02:00pm N 13 16 - - - - 10 - - 30.8 1013.1 0.0
17/01:30pm N 12 17 - - - - 10 - - 30.6 1013.6 0.0
17/01:00pm N 14 18 - - - - 10 - - 31.4 1013.8 0.0
17/12:30pm NNW 13 17 - - - - 10 - - 31.6 1014.2 0.0
17/12:00pm NNW 14 17 - - - - 10 - - 30.9 1014.5 0.0
17/11:30am NNW 8 13 - - - - 10 - - 32.3 1014.9 0.0
17/11:00am N 6 10 - - - - 10 - - 30.7 1015.2 0.0

Other formats

Comma delimited format used in spreadsheet applications
http://www.bom.gov.au/fwo/IDQ60701/IDQ60701.94254.axf

JavaScript Object Notation format (JSON) in row-major order
http://www.bom.gov.au/fwo/IDQ60701/IDQ60701.94254.json

Data quality

Most of these data are generated automatically and are frequently updated. Quality checks on data are not normally performed. It is possible for incorrect values to appear. Refer to information at About Latest Weather Observations and please check the disclaimer before using these data.